Weather at Preah Vinhear Airport

Public forecast

Using degrees Celsius for public forecast. Weather courtesy of forecast.io.

Closest aviation weather report (METAR) to Preah Vinhear Airport

Closest report is Siem Reap-Angkor International Airport, 49.6 nm (91.8 km) WSW.

2024/07/24 02:00 (retrieved 31 minutes ago)

VDSA 240200Z 24012KT 9000 SCT015 BKN040 28/25 Q1005

Closest aviation forecast (TAF) to Preah Vinhear Airport

Forecast is more than 12 hours old.

Closest forecast is Car Nicobar Air Force Base, 766.5 nm (1,419.5 km) WSW.

2024/07/23 12:00 (retrieved 15 hours ago)

TAF VOCX 230930Z 2312/2324 22010KT 6000 SCT015 BKN090 TEMPO 1215/1217 24010G20KT 5000 RA SCT015 FEW025TCU BKN090